Time;durP1;ratioP1;P1;durP2;ratioP2;P2;SDS_P1;SDS_P2;PMS_P1;PMS_P2;Temp;Humidity;BMP_temperature;BMP_pressure;BME280_temperature;BME280_humidity;BME280_pressure;Samples;Min_cycle;Max_cycle;Signal;HPM_P1;HPM_P2
2022/04/25 00:01:00;;;;;;;13.93;2.22;;;;;;;13.26;77.40;98296.34;1697704;83;21071;-82
2022/04/25 00:03:26;;;;;;;12.55;1.92;;;;;;;13.25;77.89;98324.69;1732170;83;21047;-81
2022/04/25 00:05:53;;;;;;;13.48;2.42;;;;;;;13.12;79.11;98340.54;1709406;83;21047;-82
2022/04/25 00:08:20;;;;;;;13.53;2.25;;;;;;;13.05;80.97;98340.00;1714585;83;21022;-81
2022/04/25 00:10:46;;;;;;;12.50;3.00;;;;;;;13.03;80.93;98320.95;1697837;83;21040;-81
2022/04/25 00:13:14;;;;;;;22.20;3.40;;;;;;;13.03;81.33;98298.78;1731026;81;21038;-82
2022/04/25 00:15:41;;;;;;;15.98;2.80;;;;;;;13.05;78.73;98252.58;1768658;81;21007;-82
2022/04/25 00:18:09;;;;;;;12.82;3.30;;;;;;;13.02;79.58;98257.09;1748652;81;21016;-82
2022/04/25 00:20:36;;;;;;;19.23;2.85;;;;;;;12.96;82.05;98274.36;1691831;84;21073;-81
2022/04/25 00:23:06;;;;;;;13.95;2.85;;;;;;;12.94;78.98;98269.20;1747796;81;21023;-82
2022/04/25 00:25:35;;;;;;;11.95;1.87;;;;;;;12.94;81.44;98280.94;1738611;81;21007;-81
2022/04/25 00:28:04;;;;;;;10.50;2.12;;;;;;;12.97;80.40;98277.33;1736967;82;21022;-82
2022/04/25 00:30:31;;;;;;;14.80;2.83;;;;;;;12.94;78.84;98271.81;1727306;82;21032;-82
2022/04/25 00:32:59;;;;;;;12.05;2.47;;;;;;;12.88;83.89;98262.51;1708902;84;21028;-81
2022/04/25 00:35:27;;;;;;;18.23;3.80;;;;;;;12.85;82.66;98256.16;1717644;81;21071;-82
2022/04/25 00:37:54;;;;;;;21.42;3.85;;;;;;;12.81;82.12;98255.91;1753951;81;21013;-81
2022/04/25 00:40:24;;;;;;;16.02;2.92;;;;;;;12.80;82.75;98250.30;1728754;83;21635;-81
2022/04/25 00:42:52;;;;;;;16.20;3.20;;;;;;;12.78;83.00;98248.22;1717727;83;21779;-81
2022/04/25 00:45:19;;;;;;;17.50;3.25;;;;;;;12.77;81.21;98246.52;1727724;82;21011;-82
2022/04/25 00:47:46;;;;;;;26.37;3.65;;;;;;;12.69;81.77;98245.60;1747591;81;21010;-81
2022/04/25 00:50:15;;;;;;;18.67;2.95;;;;;;;12.65;79.20;98251.88;1767950;81;21063;-82
2022/04/25 00:52:42;;;;;;;14.83;2.58;;;;;;;12.61;79.04;98258.59;1760496;81;21030;-82
2022/04/25 00:55:11;;;;;;;25.92;2.90;;;;;;;12.57;82.58;98252.67;1754745;81;21596;-81
2022/04/25 00:57:39;;;;;;;17.15;2.40;;;;;;;12.56;79.47;98250.16;1740115;81;21109;-81
2022/04/25 01:00:10;;;;;;;18.20;2.17;;;;;;;12.51;80.32;98254.27;1748563;81;21048;-81
2022/04/25 01:02:37;;;;;;;15.10;2.20;;;;;;;12.45;79.97;98243.66;1750492;81;21074;-83
2022/04/25 01:05:05;;;;;;;19.98;2.65;;;;;;;12.43;81.51;98248.09;1729353;83;21059;-81
2022/04/25 01:07:35;;;;;;;21.30;3.20;;;;;;;12.40;81.16;98256.08;1732826;83;20991;-81
2022/04/25 01:10:04;;;;;;;20.75;3.50;;;;;;;12.41;82.29;98256.45;1737670;81;21023;-80
2022/04/25 01:12:31;;;;;;;16.57;2.92;;;;;;;12.47;83.28;98257.93;1729707;83;21043;-81
2022/04/25 01:15:04;;;;;;;11.10;2.72;;;;;;;12.51;83.57;98247.31;1711727;83;21022;-81
2022/04/25 01:17:31;;;;;;;15.10;3.02;;;;;;;12.56;83.51;98240.56;1746578;81;21038;-80
2022/04/25 01:19:59;;;;;;;14.90;2.67;;;;;;;12.60;83.14;98235.59;1768365;81;21498;-80
2022/04/25 01:22:47;;;;;;;20.20;2.55;;;;;;;12.64;83.82;98232.39;1750842;81;21062;-84
2022/04/25 01:28:02;;;;;;;14.75;2.85;;;;;;;12.61;81.92;98229.91;1739048;81;20996;-80
2022/04/25 01:30:32;;;;;;;15.45;3.67;;;;;;;12.49;80.85;98222.20;1763110;81;21035;-81
2022/04/25 01:32:57;;;;;;;18.82;3.27;;;;;;;12.41;81.66;98223.86;1747213;81;21050;-80
2022/04/25 01:35:25;;;;;;;13.00;2.62;;;;;;;12.36;83.08;98222.41;1754242;81;21094;-82
2022/04/25 01:37:52;;;;;;;14.45;2.58;;;;;;;12.31;83.68;98216.95;1719162;83;21025;-80
2022/04/25 01:40:18;;;;;;;13.93;2.58;;;;;;;12.27;84.96;98210.63;1704614;83;21429;-80
2022/04/25 01:42:45;;;;;;;20.35;2.67;;;;;;;12.22;84.54;98207.41;1733132;81;21051;-80
2022/04/25 01:45:12;;;;;;;19.07;3.52;;;;;;;12.19;83.19;98209.67;1713482;83;21003;-80
2022/04/25 01:47:40;;;;;;;17.90;3.10;;;;;;;12.13;83.13;98204.74;1724290;81;21056;-81
2022/04/25 01:50:08;;;;;;;13.28;2.75;;;;;;;12.04;84.52;98204.72;1724051;83;20976;-81
2022/04/25 01:52:35;;;;;;;20.77;3.83;;;;;;;11.99;84.12;98206.67;1754211;81;21023;-81
2022/04/25 01:55:04;;;;;;;12.63;2.60;;;;;;;11.89;83.45;98204.09;1729235;83;21043;-81
2022/04/25 01:57:31;;;;;;;18.45;2.87;;;;;;;11.87;82.99;98198.91;1748598;80;21568;-80
2022/04/25 01:59:58;;;;;;;17.80;3.02;;;;;;;11.79;84.69;98201.48;1745152;81;21524;-80
2022/04/25 02:02:25;;;;;;;13.05;3.27;;;;;;;11.71;84.19;98205.26;1699430;82;21027;-81
2022/04/25 02:04:52;;;;;;;13.22;3.12;;;;;;;11.65;84.46;98204.23;1731666;82;21069;-81
2022/04/25 02:07:19;;;;;;;16.50;3.08;;;;;;;11.56;87.39;98203.34;1706655;82;20977;-85
2022/04/25 02:09:45;;;;;;;11.15;3.05;;;;;;;11.49;84.69;98200.14;1715094;83;21022;-83
2022/04/25 02:12:12;;;;;;;17.15;2.52;;;;;;;11.47;86.43;98197.23;1713286;83;20957;-84
2022/04/25 02:14:41;;;;;;;8.45;2.55;;;;;;;11.45;86.04;98202.95;1739851;82;21007;-81
2022/04/25 02:17:07;;;;;;;12.47;2.27;;;;;;;11.38;87.77;98195.88;1691697;83;21010;-81
2022/04/25 02:19:38;;;;;;;12.03;3.22;;;;;;;11.39;86.24;98198.02;1727503;82;21004;-82
2022/04/25 02:22:02;;;;;;;15.85;2.83;;;;;;;11.31;86.70;98206.14;1746024;82;21027;-81
2022/04/25 02:24:29;;;;;;;13.35;2.72;;;;;;;11.31;86.06;98202.23;1723219;83;21004;-81
2022/04/25 02:26:55;;;;;;;12.47;2.35;;;;;;;11.29;86.38;98201.45;1723473;83;21015;-81
2022/04/25 02:29:22;;;;;;;13.80;2.20;;;;;;;11.27;86.97;98197.61;1723743;82;21015;-81
2022/04/25 02:31:49;;;;;;;23.30;3.17;;;;;;;11.23;88.54;98195.22;1731304;82;20996;-82
2022/04/25 02:34:15;;;;;;;17.40;2.27;;;;;;;11.24;88.08;98203.39;1693399;85;21108;-80
2022/04/25 02:36:42;;;;;;;15.98;2.65;;;;;;;11.24;87.09;98203.39;1714144;82;21007;-81
2022/04/25 02:39:09;;;;;;;14.47;2.58;;;;;;;11.19;88.09;98203.59;1680661;85;21008;-81
2022/04/25 02:41:36;;;;;;;21.45;3.50;;;;;;;11.19;86.74;98201.00;1687472;84;21135;-79
2022/04/25 02:44:02;;;;;;;13.72;2.65;;;;;;;11.19;87.31;98194.49;1648517;84;21053;-81
2022/04/25 02:46:29;;;;;;;13.15;2.40;;;;;;;11.16;87.76;98195.94;1642586;86;21057;-81
2022/04/25 02:48:56;;;;;;;16.75;2.60;;;;;;;11.17;89.08;98196.31;1663193;86;21023;-81
2022/04/25 02:51:23;;;;;;;9.68;2.45;;;;;;;11.17;87.75;98191.11;1655060;86;21027;-81
2022/04/25 02:53:50;;;;;;;22.95;2.55;;;;;;;11.17;87.56;98193.71;1671426;86;21051;-83
2022/04/25 02:56:16;;;;;;;8.05;2.08;;;;;;;11.17;87.12;98193.71;1671664;86;21030;-83
2022/04/25 02:58:43;;;;;;;13.45;2.95;;;;;;;11.12;88.57;98190.44;1654351;84;21098;-82
2022/04/25 03:01:10;;;;;;;14.20;2.27;;;;;;;11.09;89.03;98189.28;1665048;84;21033;-81
2022/04/25 03:03:37;;;;;;;13.93;2.60;;;;;;;11.10;88.72;98189.23;1673202;86;21007;-83
2022/04/25 03:06:09;;;;;;;17.57;3.02;;;;;;;11.11;88.97;98191.37;1674693;84;20993;-83
2022/04/25 03:08:38;;;;;;;19.00;3.52;;;;;;;11.12;88.79;98198.25;1672706;86;21027;-80
2022/04/25 03:11:10;;;;;;;14.07;2.42;;;;;;;11.13;89.97;98200.79;1673971;85;21067;-80
2022/04/25 03:13:38;;;;;;;13.83;2.70;;;;;;;11.15;89.21;98193.77;1668285;85;22085;-83
2022/04/25 03:16:06;;;;;;;9.90;2.10;;;;;;;11.18;87.86;98194.12;1691105;84;21473;-81
2022/04/25 03:18:33;;;;;;;13.43;2.27;;;;;;;11.19;87.98;98201.00;1692372;84;21024;-81
2022/04/25 03:21:00;;;;;;;16.45;2.17;;;;;;;11.18;87.52;98194.12;1660896;86;21084;-81
2022/04/25 03:23:28;;;;;;;7.60;2.35;;;;;;;11.19;89.13;98201.45;1709432;84;20986;-81
2022/04/25 03:25:56;;;;;;;13.18;3.05;;;;;;;11.18;89.82;98201.05;1708998;83;21085;-81
2022/04/25 03:28:23;;;;;;;10.98;2.12;;;;;;;11.20;88.57;98199.23;1708160;83;21011;-81
2022/04/25 03:30:50;;;;;;;17.42;2.80;;;;;;;11.19;87.82;98201.00;1708508;83;21010;-81
2022/04/25 03:33:17;;;;;;;12.15;2.33;;;;;;;11.21;87.56;98201.78;1705567;84;21005;-81
2022/04/25 03:35:46;;;;;;;15.20;2.02;;;;;;;11.19;87.56;98201.00;1726948;83;21061;-81
2022/04/25 03:38:17;;;;;;;15.28;2.83;;;;;;;11.24;88.28;98193.86;1708321;83;21040;-81
2022/04/25 03:40:44;;;;;;;12.47;2.15;;;;;;;11.27;87.07;98196.31;1706962;84;21109;-81
2022/04/25 03:43:12;;;;;;;10.38;2.17;;;;;;;11.28;88.10;98194.55;1701940;83;21036;-84
2022/04/25 03:45:40;;;;;;;18.52;2.10;;;;;;;11.31;86.86;98206.14;1703353;84;21081;-80
2022/04/25 03:48:08;;;;;;;15.55;2.70;;;;;;;11.31;87.93;98203.08;1690177;83;21055;-81
2022/04/25 03:50:34;;;;;;;12.90;2.77;;;;;;;11.34;87.45;98209.47;1670468;84;21023;-80
2022/04/25 03:53:11;;;;;;;15.95;2.55;;;;;;;11.34;87.35;98206.03;1659185;85;21080;-81
2022/04/25 03:58:23;;;;;;;19.48;2.67;;;;;;;11.39;87.82;98219.67;1687798;84;21085;-81
2022/04/25 04:00:50;;;;;;;8.78;1.90;;;;;;;11.43;86.27;98220.39;1706047;83;21610;-81
2022/04/25 04:03:18;;;;;;;13.68;2.30;;;;;;;11.43;86.40;98219.92;1692714;85;20992;-81
2022/04/25 04:05:46;;;;;;;13.15;2.95;;;;;;;11.45;88.05;98218.56;1712411;83;21004;-82
2022/04/25 04:08:14;;;;;;;12.18;1.90;;;;;;;11.50;86.62;98219.23;1726506;83;21036;-82
2022/04/25 04:10:40;;;;;;;18.23;2.45;;;;;;;11.52;86.35;98214.80;1744813;81;20991;-82
2022/04/25 04:13:07;;;;;;;15.90;3.02;;;;;;;11.61;86.43;98218.76;1740626;81;21007;-81
2022/04/25 04:15:34;;;;;;;9.05;2.22;;;;;;;11.61;86.87;98222.20;1761177;81;21526;-81
2022/04/25 04:18:01;;;;;;;10.85;1.90;;;;;;;11.65;86.61;98212.03;1761079;81;21123;-82
2022/04/25 04:20:28;;;;;;;14.70;2.40;;;;;;;11.72;86.41;98220.45;1751757;81;21079;-81
2022/04/25 04:22:54;;;;;;;14.90;2.20;;;;;;;11.81;86.35;98209.61;1730614;83;21051;-82
2022/04/25 04:25:22;;;;;;;16.15;2.12;;;;;;;11.83;85.87;98218.66;1757408;81;21054;-80
2022/04/25 04:27:49;;;;;;;13.78;2.17;;;;;;;11.87;86.47;98228.03;1744998;81;21039;-82
2022/04/25 04:30:18;;;;;;;13.10;2.15;;;;;;;11.91;85.91;98224.41;1751593;81;21007;-80
2022/04/25 04:32:46;;;;;;;16.77;2.52;;;;;;;11.95;85.40;98225.95;1730256;83;20972;-81
2022/04/25 04:36:17;;;;;;;15.65;3.00;;;;;;;12.01;84.90;98220.47;1730184;83;21094;-81
2022/04/25 04:37:45;;;;;;;15.27;2.40;;;;;;;12.01;85.47;98220.47;1725854;83;21034;-81
2022/04/25 04:40:31;;;;;;;18.85;2.77;;;;;;;12.02;85.07;98229.99;1729449;83;20975;-80
2022/04/25 04:42:58;;;;;;;18.30;2.90;;;;;;;12.05;85.08;98223.79;1742304;81;21044;-81
2022/04/25 04:45:26;;;;;;;17.12;2.80;;;;;;;12.04;85.32;98219.52;1737050;81;21506;-81
2022/04/25 04:47:52;;;;;;;18.32;2.83;;;;;;;12.06;85.25;98217.22;1688385;85;21038;-80
2022/04/25 04:50:19;;;;;;;9.73;2.33;;;;;;;12.09;85.22;98226.18;1691174;84;21020;-83
2022/04/25 04:52:49;;;;;;;11.83;3.95;;;;;;;12.13;83.82;98222.52;1702041;84;21011;-81
2022/04/25 04:55:16;;;;;;;8.20;1.98;;;;;;;12.16;83.66;98225.93;1684469;84;21106;-82
2022/04/25 04:57:43;;;;;;;7.97;1.90;;;;;;;12.17;84.05;98221.92;1661216;85;22231;-81
2022/04/25 05:00:15;;;;;;;15.13;2.65;;;;;;;12.22;85.01;98225.19;1716191;83;21082;-80
2022/04/25 05:02:44;;;;;;;13.20;2.50;;;;;;;12.29;85.90;98229.64;1749608;81;21055;-81
2022/04/25 05:05:12;;;;;;;17.92;1.77;;;;;;;12.38;85.67;98227.09;1723816;82;20998;-81
2022/04/25 05:07:39;;;;;;;8.13;1.90;;;;;;;12.45;85.75;98237.14;1710645;82;21603;-81
2022/04/25 05:10:08;;;;;;;11.78;2.58;;;;;;;12.54;84.92;98231.97;1716288;83;21003;-81
2022/04/25 05:12:54;;;;;;;13.95;2.47;;;;;;;12.61;84.75;98229.45;1739262;82;21054;-81
2022/04/25 05:15:20;;;;;;;15.90;2.62;;;;;;;12.68;84.22;98229.55;1752824;82;20992;-81
2022/04/25 05:17:49;;;;;;;11.08;2.10;;;;;;;12.76;84.79;98229.66;1729863;82;21012;-81
2022/04/25 05:20:18;;;;;;;14.85;2.25;;;;;;;12.84;84.32;98227.53;1699879;83;21004;-80
2022/04/25 05:22:47;;;;;;;14.98;2.83;;;;;;;12.88;83.81;98232.51;1718632;83;21028;-81
2022/04/25 05:25:17;;;;;;;10.10;2.10;;;;;;;12.90;83.28;98229.37;1700826;82;21075;-81
2022/04/25 05:27:47;;;;;;;16.45;2.60;;;;;;;13.04;82.15;98235.22;1695829;83;21039;-81
2022/04/25 05:30:16;;;;;;;13.55;2.30;;;;;;;13.06;82.10;98232.55;1720009;82;20960;-81
2022/04/25 05:32:57;;;;;;;8.98;2.12;;;;;;;13.10;80.85;98238.83;1726672;82;21092;-80
2022/04/25 05:35:26;;;;;;;10.75;2.47;;;;;;;13.10;80.82;98228.39;1711883;83;20981;-81
2022/04/25 05:37:54;;;;;;;10.13;1.90;;;;;;;13.16;80.56;98233.78;1709176;83;21033;-82
2022/04/25 05:40:21;;;;;;;13.30;3.02;;;;;;;13.17;81.18;98230.27;1697713;82;21568;-80
2022/04/25 05:42:50;;;;;;;15.65;2.40;;;;;;;13.22;81.58;98223.03;1737548;82;21060;-80
2022/04/25 05:45:21;;;;;;;7.08;1.80;;;;;;;13.29;80.07;98227.47;1740924;82;21111;-81
2022/04/25 05:47:48;;;;;;;11.20;1.87;;;;;;;13.34;79.96;98228.13;1742427;82;21673;-81
2022/04/25 05:53:04;;;;;;;16.37;2.30;;;;;;;13.51;79.73;98222.08;1717450;82;21019;-81
2022/04/25 05:55:31;;;;;;;10.23;2.05;;;;;;;13.59;80.42;98217.73;1702079;82;21513;-80
2022/04/25 05:58:02;;;;;;;12.45;2.20;;;;;;;13.62;81.15;98209.30;1673914;84;21058;-81
2022/04/25 06:00:30;;;;;;;10.80;2.27;;;;;;;13.65;81.28;98214.84;1654192;86;21079;-81
2022/04/25 06:02:58;;;;;;;14.15;3.20;;;;;;;13.71;81.72;98205.38;1711092;83;21503;-80
2022/04/25 06:05:25;;;;;;;13.50;2.27;;;;;;;13.76;82.32;98204.66;1678434;83;21095;-79
2022/04/25 06:07:52;;;;;;;16.23;2.72;;;;;;;13.85;81.15;98208.58;1714926;83;21026;-81
2022/04/25 06:10:22;;;;;;;13.00;2.20;;;;;;;13.87;81.29;98198.42;1694294;83;21054;-81
2022/04/25 06:12:52;;;;;;;9.50;2.33;;;;;;;13.95;80.69;98205.86;1713967;83;20972;-80
2022/04/25 06:15:21;;;;;;;20.62;2.35;;;;;;;13.99;80.35;98207.38;1670659;83;21022;-81
2022/04/25 06:17:48;;;;;;;18.07;2.62;;;;;;;14.07;80.10;98203.05;1697303;83;21055;-80
2022/04/25 06:20:15;;;;;;;12.43;2.67;;;;;;;14.16;79.50;98198.62;1693048;83;21010;-82
2022/04/25 06:22:58;;;;;;;12.47;2.72;;;;;;;14.22;79.32;98196.14;1699784;83;21036;-80
2022/04/25 06:25:26;;;;;;;8.68;1.92;;;;;;;14.32;78.59;98189.04;1723770;83;20973;-80
2022/04/25 06:27:55;;;;;;;13.55;2.52;;;;;;;14.37;77.91;98196.63;1694473;81;21059;-81
2022/04/25 06:30:28;;;;;;;13.98;2.50;;;;;;;14.40;75.94;98191.20;1670374;83;21061;-81
2022/04/25 06:32:53;;;;;;;16.40;3.00;;;;;;;14.41;76.04;98188.98;1653703;86;21000;-80
2022/04/25 06:35:20;;;;;;;14.28;2.17;;;;;;;14.43;74.87;98190.22;1725806;83;21020;-80
2022/04/25 06:37:48;;;;;;;17.42;3.27;;;;;;;14.47;75.34;98186.03;1729883;83;21039;-81
2022/04/25 06:40:14;;;;;;;14.28;2.65;;;;;;;14.50;74.90;98185.88;1730339;81;20993;-81
2022/04/25 06:42:41;;;;;;;12.80;2.25;;;;;;;14.56;75.33;98188.62;1732440;83;21047;-81
2022/04/25 06:45:08;;;;;;;12.43;2.00;;;;;;;14.61;74.90;98181.84;1693316;84;21101;-80
2022/04/25 06:47:35;;;;;;;8.55;1.98;;;;;;;14.73;75.01;98178.53;1697030;84;21032;-80
2022/04/25 06:50:02;;;;;;;9.45;2.25;;;;;;;14.73;74.85;98166.75;1705248;83;21032;-80
2022/04/25 06:52:29;;;;;;;11.15;2.67;;;;;;;14.82;74.65;98157.09;1725442;83;20999;-80
2022/04/25 06:54:57;;;;;;;13.08;1.98;;;;;;;14.90;72.71;98170.56;1711706;83;21011;-80
2022/04/25 06:57:23;;;;;;;14.43;2.40;;;;;;;15.04;73.59;98172.83;1716099;82;21087;-80
2022/04/25 06:59:50;;;;;;;11.25;2.17;;;;;;;15.10;72.87;98180.36;1690317;84;21599;-79
2022/04/25 07:02:16;;;;;;;13.78;2.00;;;;;;;15.18;72.08;98182.06;1690113;85;21084;-81
2022/04/25 07:04:45;;;;;;;14.78;2.40;;;;;;;15.31;72.52;98171.69;1711682;83;20972;-80
2022/04/25 07:07:12;;;;;;;11.25;2.35;;;;;;;15.41;71.16;98175.92;1728961;83;21088;-80
2022/04/25 07:09:39;;;;;;;12.63;2.00;;;;;;;15.51;71.45;98170.50;1718417;81;20984;-81
2022/04/25 07:12:07;;;;;;;9.70;2.60;;;;;;;15.60;72.01;98165.20;1762667;80;21597;-80
2022/04/25 07:14:34;;;;;;;13.78;2.80;;;;;;;15.71;71.41;98167.99;1742767;80;21027;-80
2022/04/25 07:17:03;;;;;;;16.15;2.62;;;;;;;15.77;70.33;98161.09;1732412;83;20991;-81
2022/04/25 07:19:30;;;;;;;16.75;2.37;;;;;;;15.82;70.70;98152.97;1732463;83;21098;-81
2022/04/25 07:30:14;;;;;;;11.03;2.40;;;;;;;16.41;69.89;98147.07;1692899;83;21062;-81
2022/04/25 07:32:40;;;;;;;10.15;2.08;;;;;;;16.47;69.12;98151.92;1685872;84;21037;-80
2022/04/25 07:35:08;;;;;;;13.08;2.70;;;;;;;16.62;69.15;98137.44;1752435;81;21141;-79
2022/04/25 07:37:35;;;;;;;17.30;2.05;;;;;;;16.79;68.13;98138.49;1749729;81;20957;-79
2022/04/25 07:40:06;;;;;;;17.55;3.12;;;;;;;17.00;68.09;98145.44;1725446;81;21051;-79
2022/04/25 07:42:33;;;;;;;10.70;2.62;;;;;;;17.18;67.82;98140.73;1761729;81;21038;-80
2022/04/25 07:45:00;;;;;;;10.80;2.58;;;;;;;17.29;67.08;98143.97;1761873;81;21008;-79
2022/04/25 07:47:26;;;;;;;16.23;3.02;;;;;;;17.38;66.96;98138.07;1761781;81;21506;-81
2022/04/25 07:49:53;;;;;;;20.10;2.22;;;;;;;17.43;65.71;98143.03;1756244;81;21399;-79
2022/04/25 07:52:20;;;;;;;12.95;2.10;;;;;;;17.52;65.60;98139.75;1714172;81;21487;-80
2022/04/25 07:54:46;;;;;;;10.98;2.30;;;;;;;17.70;66.44;98136.33;1761794;80;20996;-79
2022/04/25 07:57:13;;;;;;;14.47;2.35;;;;;;;17.85;66.43;98133.98;1735510;81;22164;-80
2022/04/25 07:59:40;;;;;;;11.80;2.62;;;;;;;17.98;65.62;98138.38;1729722;83;21015;-77
2022/04/25 08:02:07;;;;;;;14.85;2.67;;;;;;;18.09;65.15;98134.52;1725023;82;21046;-81
2022/04/25 08:04:33;;;;;;;12.00;2.17;;;;;;;18.11;64.82;98137.05;1727291;81;21003;-81
2022/04/25 08:07:00;;;;;;;12.30;2.17;;;;;;;18.09;64.27;98141.92;1728751;83;21067;-80
2022/04/25 08:09:27;;;;;;;11.83;2.40;;;;;;;18.15;64.14;98135.88;1730049;83;21538;-79
2022/04/25 08:19:44;;;;;;;13.08;2.37;;;;;;;18.37;61.31;98112.80;1718640;83;21036;-81
2022/04/25 08:22:10;;;;;;;13.93;2.83;;;;;;;18.42;62.05;98118.55;1763678;81;21030;-81
2022/04/25 08:24:37;;;;;;;9.40;2.33;;;;;;;18.45;62.39;98109.97;1764361;81;20972;-80
2022/04/25 08:27:05;;;;;;;14.23;2.80;;;;;;;18.41;60.86;98112.95;1733085;81;21091;-80
2022/04/25 08:29:33;;;;;;;11.48;2.20;;;;;;;18.40;61.91;98108.16;1744893;81;21483;-81
2022/04/25 08:32:00;;;;;;;16.17;2.65;;;;;;;18.45;62.19;98108.65;1762098;80;21057;-80
2022/04/25 08:34:27;;;;;;;14.53;2.47;;;;;;;18.51;61.46;98119.21;1746190;81;20983;-80
2022/04/25 08:36:53;;;;;;;15.65;2.80;;;;;;;18.51;60.47;98161.32;1753288;81;21067;-80
2022/04/25 08:39:20;;;;;;;10.28;2.27;;;;;;;18.49;61.17;98180.33;1744740;81;21019;-81
2022/04/25 08:41:51;;;;;;;16.32;3.22;;;;;;;18.24;60.95;98187.81;1742825;81;21028;-81
2022/04/25 08:44:19;;;;;;;14.00;2.75;;;;;;;18.06;61.54;98197.39;1723966;81;22083;-80
2022/04/25 08:46:52;;;;;;;13.48;3.02;;;;;;;17.85;62.77;98215.97;1717658;83;21496;-79
2022/04/25 08:49:19;;;;;;;12.10;2.95;;;;;;;17.51;64.67;98230.06;1738375;81;20999;-82
2022/04/25 08:51:47;;;;;;;16.15;3.33;;;;;;;17.39;65.60;98227.78;1747358;81;21030;-81
2022/04/25 08:54:14;;;;;;;17.98;3.45;;;;;;;17.19;65.21;98236.98;1731988;83;21000;-81
2022/04/25 08:56:42;;;;;;;12.93;3.05;;;;;;;16.98;66.55;98252.82;1726729;82;20987;-81
2022/04/25 08:59:11;;;;;;;16.57;3.27;;;;;;;16.77;67.16;98258.94;1735260;81;21562;-81
2022/04/25 09:01:40;;;;;;;13.08;3.15;;;;;;;16.64;68.03;98272.84;1735644;81;21017;-81
2022/04/25 09:04:07;;;;;;;10.95;2.77;;;;;;;16.48;70.36;98287.39;1719988;83;21138;-79
2022/04/25 09:06:34;;;;;;;13.55;3.90;;;;;;;16.29;69.12;98302.56;1709039;81;20983;-81
2022/04/25 09:09:00;;;;;;;19.35;2.87;;;;;;;16.01;70.89;98299.47;1759425;81;21904;-81
2022/04/25 09:14:15;;;;;;;13.53;2.90;;;;;;;15.29;72.85;98311.88;1730138;83;20958;-83
2022/04/25 09:16:43;;;;;;;15.65;2.80;;;;;;;14.79;75.64;98322.56;1727560;83;21489;-81
2022/04/25 09:19:10;;;;;;;7.28;1.80;;;;;;;14.38;75.43;98323.80;1725526;83;21347;-82
2022/04/25 09:21:44;;;;;;;7.60;1.85;;;;;;;14.00;75.01;98329.27;1717377;83;21062;-82
2022/04/25 09:24:31;;;;;;;6.78;2.08;;;;;;;13.56;77.47;98324.52;1732853;81;21062;-81
2022/04/25 09:27:18;;;;;;;6.65;1.90;;;;;;;13.39;77.29;98320.14;1760786;81;21585;-82
2022/04/25 09:29:48;;;;;;;4.90;2.12;;;;;;;13.14;77.20;98316.05;1761338;81;21011;-81
2022/04/25 09:32:17;;;;;;;6.72;1.82;;;;;;;13.02;77.30;98317.11;1760295;81;21059;-82
2022/04/25 09:35:00;;;;;;;10.05;1.92;;;;;;;12.98;76.89;98308.58;1760451;81;20983;-81
2022/04/25 09:37:45;;;;;;;8.63;1.95;;;;;;;12.94;76.63;98298.73;1752390;81;21083;-81
2022/04/25 09:40:16;;;;;;;10.30;1.98;;;;;;;13.00;77.41;98287.64;1724466;83;21059;-82
2022/04/25 09:42:42;;;;;;;6.75;1.80;;;;;;;13.07;77.02;98287.71;1704299;83;20972;-82
2022/04/25 09:45:09;;;;;;;3.05;1.30;;;;;;;13.12;76.30;98281.83;1704087;83;20990;-82
2022/04/25 09:47:38;;;;;;;4.42;1.20;;;;;;;13.19;76.64;98275.83;1709784;82;21094;-82
2022/04/25 09:50:14;;;;;;;7.20;1.82;;;;;;;13.20;76.88;98274.46;1729951;83;21515;-81
2022/04/25 09:53:02;;;;;;;4.30;1.40;;;;;;;13.26;77.15;98272.86;1735137;81;21035;-82
2022/04/25 09:55:32;;;;;;;4.75;1.77;;;;;;;13.35;77.03;98274.22;1730318;83;21008;-82
2022/04/25 09:57:59;;;;;;;7.37;2.10;;;;;;;13.47;77.12;98276.21;1720532;81;21087;-82
2022/04/25 10:00:33;;;;;;;5.85;2.10;;;;;;;13.56;76.83;98289.26;1760355;81;20979;-82
2022/04/25 10:03:08;;;;;;;11.28;1.90;;;;;;;13.64;76.76;98294.10;1727132;83;20984;-82
2022/04/25 10:05:52;;;;;;;8.20;1.70;;;;;;;13.71;76.26;98292.41;1708602;83;21045;-82
2022/04/25 10:08:20;;;;;;;7.42;1.70;;;;;;;13.84;76.33;98285.25;1716917;82;21001;-82
2022/04/25 10:10:57;;;;;;;9.45;2.17;;;;;;;14.01;75.85;98282.62;1732040;82;21012;-82
2022/04/25 10:13:25;;;;;;;7.12;1.67;;;;;;;14.16;76.40;98280.95;1713072;82;21064;-82
2022/04/25 10:15:53;;;;;;;8.48;1.95;;;;;;;14.35;75.21;98286.07;1697234;82;21058;-82
2022/04/25 10:18:20;;;;;;;4.42;1.77;;;;;;;14.49;74.81;98269.64;1728591;82;21016;-82
2022/04/25 10:20:47;;;;;;;4.85;2.12;;;;;;;14.65;74.87;98260.52;1698080;84;21072;-82
2022/04/25 10:23:16;;;;;;;4.87;1.72;;;;;;;14.89;74.97;98258.31;1698862;84;21039;-81
2022/04/25 10:25:54;;;;;;;5.95;1.55;;;;;;;15.11;74.49;98257.95;1709079;84;21112;-80
2022/04/25 10:28:33;;;;;;;8.53;1.70;;;;;;;15.34;74.34;98262.31;1667174;84;21072;-80
2022/04/25 10:31:10;;;;;;;7.47;2.12;;;;;;;15.59;71.34;98272.22;1682653;84;21052;-82
2022/04/25 10:33:58;;;;;;;7.33;1.87;;;;;;;15.77;72.19;98279.49;1704523;84;21380;-81
2022/04/25 10:36:42;;;;;;;4.53;1.67;;;;;;;16.00;72.21;98282.06;1672870;85;21034;-81
2022/04/25 10:39:18;;;;;;;4.03;1.52;;;;;;;16.23;69.73;98282.80;1652739;85;21081;-81
2022/04/25 10:44:50;;;;;;;4.83;1.65;;;;;;;16.45;68.18;98286.73;1636625;87;20998;-80
2022/04/25 10:47:24;;;;;;;7.03;1.72;;;;;;;16.63;67.27;98280.80;1662340;86;21101;-81
2022/04/25 10:49:59;;;;;;;8.63;2.40;;;;;;;16.65;66.17;98279.79;1647918;86;21486;-81
2022/04/25 10:55:23;;;;;;;10.20;2.30;;;;;;;16.69;64.52;98276.47;1697876;84;21009;-82
2022/04/25 10:58:08;;;;;;;9.18;2.08;;;;;;;16.72;65.49;98278.92;1690757;83;21096;-82
2022/04/25 11:00:44;;;;;;;6.80;2.67;;;;;;;16.89;65.46;98277.42;1690026;84;21012;-82
2022/04/25 11:03:27;;;;;;;9.73;2.60;;;;;;;16.85;65.07;98282.49;1694133;83;21047;-82
2022/04/25 11:06:00;;;;;;;8.88;2.25;;;;;;;16.96;65.89;98284.42;1731154;81;21010;-82
2022/04/25 11:08:35;;;;;;;;;;;;;;;17.04;65.19;98270.80;1746339;81;21006;-83
2022/04/25 11:11:09;;;;;;;11.22;3.02;;;;;;;17.19;65.43;98275.06;1736219;81;20140;-81
2022/04/25 11:13:54;;;;;;;9.70;2.45;;;;;;;17.30;66.26;98272.56;1726496;81;21115;-79
2022/04/25 11:16:24;;;;;;;11.03;2.27;;;;;;;17.40;63.75;98275.42;1725829;83;21039;-79
2022/04/25 11:19:22;;;;;;;10.03;2.50;;;;;;;17.38;63.57;98271.23;1737967;81;21493;-80
2022/04/25 11:21:55;;;;;;;6.47;2.52;;;;;;;17.53;63.46;98276.78;1763383;81;21064;-81
2022/04/25 11:24:35;;;;;;;10.10;2.22;;;;;;;17.74;61.18;98278.43;1745289;81;21064;-81
2022/04/25 11:27:05;;;;;;;8.90;2.40;;;;;;;17.87;60.49;98278.48;1726115;81;21060;-81
2022/04/25 11:29:32;;;;;;;6.33;1.80;;;;;;;18.08;61.15;98277.03;1729267;83;21078;-79
2022/04/25 11:32:40;;;;;;;4.17;2.10;;;;;;;18.28;61.11;98274.78;1710867;83;21058;-81
2022/04/25 11:35:07;;;;;;;14.65;2.17;;;;;;;18.33;57.86;98279.27;1748543;81;21609;-80
2022/04/25 11:37:35;;;;;;;3.20;1.15;;;;;;;18.54;57.73;98284.79;1742003;81;21047;-80
2022/04/25 11:40:09;;;;;;;4.00;1.77;;;;;;;18.70;54.31;98295.07;1763038;81;21566;-81
2022/04/25 11:42:37;;;;;;;6.78;1.40;;;;;;;18.87;54.04;98284.70;1763209;81;21099;-80
2022/04/25 11:45:06;;;;;;;2.65;1.27;;;;;;;18.92;52.31;98294.89;1741412;81;21460;-82
2022/04/25 11:47:33;;;;;;;5.20;1.87;;;;;;;18.83;49.99;98297.72;1762526;81;21007;-82
2022/04/25 11:50:07;;;;;;;2.12;1.15;;;;;;;18.82;50.23;98292.94;1744718;81;21032;-81
2022/04/25 11:52:33;;;;;;;4.50;1.17;;;;;;;18.76;49.94;98305.20;1726267;83;21495;-81
2022/04/25 11:55:00;;;;;;;3.90;1.20;;;;;;;18.71;48.54;98307.78;1707096;83;20971;-80
2022/04/25 11:57:28;;;;;;;6.05;1.50;;;;;;;18.72;49.33;98314.27;1727408;81;21150;-81
2022/04/25 12:00:11;;;;;;;3.22;1.55;;;;;;;18.62;49.53;98314.07;1748404;81;21015;-81
2022/04/25 12:02:41;;;;;;;6.87;1.55;;;;;;;18.65;51.03;98313.84;1751354;81;20985;-81
2022/04/25 12:05:10;;;;;;;2.30;1.10;;;;;;;18.77;50.79;98321.34;1724817;83;20988;-82
2022/04/25 12:15:34;;;;;;;4.60;1.60;;;;;;;18.74;49.14;98313.68;1685238;83;21038;-81
2022/04/25 12:15:34;;;;;;;4.10;1.40;;;;;;;18.79;49.53;98332.64;1699397;84;21061;-82